Chappaqua, NY

8:58 AM EST on December 25, 2014 (GMT -0500)
Douglas Road | Change Station
CLOSE
Current Station
Personal Weather Station
Location: Chappaqua, NY
Elevation: 416 ft
Nearby Weather Stations

Elev 416 ft 41.16 °N, 73.79 °W | Updated 9 seconds ago

Mostly Cloudy
Mostly Cloudy
47.0 °F
Feels Like 44 °F
N
6.0
Wind Variable Wind from NNW
Gusts 12.0 mph

Today
High -- | Low -- °F
--% Chance of Precip.
Yesterday
High -- | Low -- °F
Precip. -- in
7:18 AM 4:31 PM
Waxing Crescent, 16% visible
Pressure 29.63 in
Visibility 10.0 miles
Clouds Scattered Clouds 2500 ft
Mostly Cloudy 5500 ft
Windchill 44 °F
Dew Point 38 °F
Humidity 70%
Rainfall 0.09 in
Snow Depth Not available.
UV 0 out of 12
Pollen .10 out of 12
Air Quality Not available.
Flu Activity Not available.
METAR KHPN 251256Z 28017G24KT 10SM SCT025 BKN055 09/04 A2963 RMK AO2 RAE06B26E40 SLP033 P0000 T00940044

More Conditions Fewer Conditions

Pressure 29.63 in
Visibility 10.0 miles
Clouds Scattered Clouds 2500 ft
Mostly Cloudy 5500 ft
Windchill 44 °F
Dew Point 38 °F
Humidity 70%
Rainfall 0.09 in
Snow Depth Not available.
UV 0 out of 12
Pollen .10 out of 12
Air Quality Not available.
Flu Activity Not available.
METAR KHPN 251256Z 28017G24KT 10SM SCT025 BKN055 09/04 A2963 RMK AO2 RAE06B26E40 SLP033 P0000 T00940044

More Conditions Fewer Conditions

10-Day Weather Forecast

Almanac

Astronomy

Dec. 25, 2014 Rise Set
Actual Time
Civil Twilight
Nautical Twilight
Astronomical Twilight
Moon
Length of Visible Light
Length of Day
Tomorrow will be .
, % of the Moon is Illuminated

Today's Extremes

State Highs State Lows

Community

WunderPhotos

Upload Photos

1,780,275 photos uploaded!

WunderBlogs® & News

Nearby

Air Quality

  Air Quality AQ Index Pollutant
Not available.

Snow Depth

Station Depth Elevation

Earthquake Activity

City Distance Mag. Time & Date
Minimum magnitude displayed is 2.5.

Coastal Water Temperatures

Place Temperature

Nearby Weather Stations